Time;durP1;ratioP1;P1;durP2;ratioP2;P2;SDS_P1;SDS_P2;PMS_P1;PMS_P2;Temp;Humidity;BMP_temperature;BMP_pressure;BME280_temperature;BME280_humidity;BME280_pressure;Samples;Min_cycle;Max_cycle;Signal;HPM_P1;HPM_P2
2023/01/08 00:01:06;;;;;;;4.33;4.03;;;12.30;99.90;;;;;;5053759;28;20895;-65
2023/01/08 00:03:32;;;;;;;3.97;3.77;;;12.20;99.90;;;;;;5053143;28;20180;-65
2023/01/08 00:06:09;;;;;;;3.67;3.47;;;12.20;99.90;;;;;;5053615;28;20402;-65
2023/01/08 00:08:35;;;;;;;3.63;3.43;;;12.30;99.90;;;;;;5053169;28;20442;-65
2023/01/08 00:11:01;;;;;;;3.80;3.60;;;12.40;99.90;;;;;;5053569;28;20448;-65
2023/01/08 00:13:27;;;;;;;3.50;3.30;;;12.40;99.90;;;;;;5051983;28;20174;-65
2023/01/08 00:15:52;;;;;;;3.93;3.63;;;12.30;99.90;;;;;;5053668;28;20163;-65
2023/01/08 00:18:18;;;;;;;3.70;3.50;;;12.40;99.90;;;;;;5052041;28;20404;-66
2023/01/08 00:20:45;;;;;;;3.50;3.30;;;12.40;99.90;;;;;;5041270;28;20189;-66
2023/01/08 00:23:16;;;;;;;3.47;3.27;;;12.30;99.90;;;;;;5052243;28;20543;-65
2023/01/08 00:25:42;;;;;;;3.40;3.23;;;12.20;99.90;;;;;;5052273;28;20442;-66
2023/01/08 00:28:08;;;;;;;3.10;3.00;;;12.20;99.90;;;;;;5052036;28;20999;-66
2023/01/08 00:30:34;;;;;;;3.53;3.27;;;12.20;99.90;;;;;;5051878;28;20240;-66
2023/01/08 00:33:00;;;;;;;3.67;3.47;;;12.20;99.90;;;;;;5052664;28;20487;-66
2023/01/08 00:35:26;;;;;;;3.37;3.17;;;12.20;99.90;;;;;;5051652;28;20412;-66
2023/01/08 00:37:51;;;;;;;3.60;3.40;;;12.20;99.90;;;;;;5052463;28;20227;-66
2023/01/08 00:40:17;;;;;;;5.13;3.60;;;12.30;99.90;;;;;;5052687;28;20315;-66
2023/01/08 00:42:43;;;;;;;3.50;3.30;;;12.40;99.90;;;;;;5050460;28;20645;-66
2023/01/08 00:45:09;;;;;;;3.40;3.10;;;12.30;99.90;;;;;;5052481;28;20186;-66
2023/01/08 00:47:35;;;;;;;3.90;3.60;;;12.30;99.90;;;;;;5052203;28;20174;-66
2023/01/08 00:50:01;;;;;;;3.10;3.00;;;12.30;99.90;;;;;;5051399;28;20451;-66
2023/01/08 00:52:26;;;;;;;3.10;3.00;;;12.40;99.90;;;;;;5049868;28;20431;-66
2023/01/08 00:54:52;;;;;;;3.50;3.20;;;12.20;99.90;;;;;;5045974;28;20650;-65
2023/01/08 00:57:18;;;;;;;3.97;3.77;;;12.20;99.90;;;;;;5052517;28;20537;-65
2023/01/08 00:59:44;;;;;;;3.37;3.20;;;12.20;99.90;;;;;;5050193;28;20259;-66
2023/01/08 01:02:09;;;;;;;3.20;3.00;;;12.10;99.90;;;;;;5052436;28;20224;-65
2023/01/08 01:04:35;;;;;;;3.20;3.00;;;12.20;99.90;;;;;;5050693;28;20173;-65
2023/01/08 01:07:02;;;;;;;3.90;3.60;;;12.20;99.90;;;;;;5052146;28;20567;-65
2023/01/08 01:09:28;;;;;;;3.27;3.07;;;12.20;99.90;;;;;;5051398;28;20509;-65
2023/01/08 01:11:54;;;;;;;3.20;3.10;;;12.30;99.90;;;;;;5052305;28;20412;-65
2023/01/08 01:14:19;;;;;;;3.20;3.10;;;12.20;99.90;;;;;;5049942;28;20429;-66
2023/01/08 01:16:47;;;;;;;3.60;3.33;;;12.30;99.90;;;;;;5051413;28;20177;-65
2023/01/08 01:19:14;;;;;;;3.60;3.40;;;12.30;99.90;;;;;;5052205;28;20188;-65
2023/01/08 01:21:39;;;;;;;3.37;3.13;;;12.30;99.90;;;;;;5049108;28;20950;-65
2023/01/08 01:24:06;;;;;;;3.60;3.40;;;12.30;99.90;;;;;;5050910;28;20518;-66
2023/01/08 01:26:33;;;;;;;3.30;3.10;;;12.30;99.90;;;;;;5049251;28;20206;-66
2023/01/08 01:28:59;;;;;;;3.40;3.20;;;12.40;99.90;;;;;;5052012;28;20809;-65
2023/01/08 01:31:27;;;;;;;3.30;3.10;;;12.40;99.90;;;;;;5050186;28;20423;-66
2023/01/08 01:33:53;;;;;;;3.33;3.13;;;12.40;99.90;;;;;;5052024;28;20416;-66
2023/01/08 01:36:23;;;;;;;3.40;3.20;;;12.30;99.90;;;;;;5050226;28;20443;-65
2023/01/08 01:38:51;;;;;;;3.90;3.70;;;12.30;99.90;;;;;;5050605;28;20920;-66
2023/01/08 01:41:18;;;;;;;3.60;3.40;;;12.40;99.90;;;;;;5050495;28;20614;-65
2023/01/08 01:43:44;;;;;;;3.33;3.20;;;12.30;99.90;;;;;;5051250;28;21128;-66
2023/01/08 01:46:48;;;;;;;3.33;3.23;;;12.20;99.90;;;;;;5052127;28;20419;-66
2023/01/08 01:49:19;;;;;;;3.30;3.20;;;12.20;99.90;;;;;;5043490;28;20227;-66
2023/01/08 01:51:50;;;;;;;3.70;3.50;;;12.30;99.90;;;;;;5049505;28;20701;-66
2023/01/08 01:54:16;;;;;;;3.70;3.50;;;12.40;99.90;;;;;;5041541;28;20455;-66
2023/01/08 01:56:43;;;;;;;3.73;3.53;;;12.30;99.90;;;;;;5054896;28;20450;-66
2023/01/08 01:59:10;;;;;;;3.63;3.43;;;12.20;99.90;;;;;;5055854;28;20423;-66
2023/01/08 02:01:37;;;;;;;5.00;3.40;;;12.20;99.90;;;;;;5054902;28;20420;-66
2023/01/08 02:04:03;;;;;;;4.00;3.70;;;12.10;99.90;;;;;;5053259;28;20515;-66
2023/01/08 02:06:59;;;;;;;4.23;4.00;;;12.10;99.90;;;;;;5054824;28;20457;-67
2023/01/08 02:09:42;;;;;;;4.10;3.80;;;12.10;99.90;;;;;;5054941;28;20223;-67
2023/01/08 02:12:25;;;;;;;4.00;3.70;;;12.10;99.90;;;;;;5053819;28;20481;-66
2023/01/08 02:15:21;;;;;;;3.90;3.67;;;12.00;99.90;;;;;;5051093;28;20439;-66
2023/01/08 02:17:49;;;;;;;3.90;3.70;;;12.10;99.90;;;;;;5054758;28;20422;-66
2023/01/08 02:20:38;;;;;;;3.33;3.13;;;12.20;99.90;;;;;;5054333;28;20477;-66
2023/01/08 02:23:11;;;;;;;5.53;3.53;;;12.00;99.90;;;;;;5053533;28;20428;-66
2023/01/08 02:25:37;;;;;;;3.30;3.10;;;12.00;99.90;;;;;;5054390;28;20766;-66
2023/01/08 02:28:07;;;;;;;4.03;3.73;;;11.90;99.90;;;;;;5055398;28;20423;-66
2023/01/08 02:30:34;;;;;;;3.63;3.43;;;12.00;99.90;;;;;;5053553;28;20207;-67
2023/01/08 02:33:02;;;;;;;3.70;3.50;;;12.10;99.90;;;;;;5055482;28;20829;-66
2023/01/08 02:35:41;;;;;;;3.43;3.23;;;12.10;99.90;;;;;;5052397;28;20440;-67
2023/01/08 02:38:12;;;;;;;3.53;3.33;;;12.20;99.90;;;;;;5055257;28;20396;-66
2023/01/08 02:40:51;;;;;;;4.00;3.80;;;12.20;99.90;;;;;;5053250;28;20967;-66
2023/01/08 02:43:26;;;;;;;3.73;3.53;;;12.10;99.90;;;;;;5053927;28;20415;-66
2023/01/08 02:45:58;;;;;;;3.60;3.40;;;12.20;99.90;;;;;;5051810;28;20459;-66
2023/01/08 02:48:34;;;;;;;4.27;4.07;;;12.10;99.90;;;;;;5054026;28;20809;-66
2023/01/08 02:51:07;;;;;;;4.00;3.80;;;12.10;99.90;;;;;;5049455;28;20443;-66
2023/01/08 02:53:43;;;;;;;4.30;4.10;;;11.90;99.90;;;;;;5047448;28;20461;-67
2023/01/08 02:56:17;;;;;;;3.97;3.67;;;11.90;99.90;;;;;;5053252;28;20430;-66
2023/01/08 02:58:46;;;;;;;3.97;3.67;;;12.00;99.90;;;;;;5052457;28;20403;-66
2023/01/08 03:01:15;;;;;;;3.90;3.70;;;11.70;99.90;;;;;;5053320;28;20757;-66
2023/01/08 03:03:46;;;;;;;4.50;4.00;;;11.50;99.90;;;;;;5051345;28;20440;-66
2023/01/08 03:06:16;;;;;;;4.80;4.10;;;11.60;99.90;;;;;;5053446;28;20753;-66
2023/01/08 03:08:45;;;;;;;4.20;4.00;;;11.70;99.90;;;;;;5051253;28;20776;-66
2023/01/08 03:11:13;;;;;;;4.17;3.63;;;11.70;99.90;;;;;;5052156;28;20423;-66
2023/01/08 03:13:57;;;;;;;4.40;4.00;;;11.90;99.90;;;;;;5051770;28;20408;-66
2023/01/08 03:17:05;;;;;;;3.80;3.60;;;11.90;99.90;;;;;;5053362;28;20916;-66
2023/01/08 03:19:40;;;;;;;4.10;3.80;;;12.00;99.90;;;;;;5029944;28;20428;-67
2023/01/08 03:22:10;;;;;;;3.90;3.60;;;12.00;99.90;;;;;;5032954;28;20437;-66
2023/01/08 03:24:38;;;;;;;4.13;3.80;;;11.90;99.90;;;;;;5032369;28;20460;-67
2023/01/08 03:27:08;;;;;;;4.47;4.17;;;11.90;99.90;;;;;;5040759;28;20432;-66
2023/01/08 03:29:35;;;;;;;4.30;4.00;;;12.00;99.90;;;;;;5052256;28;20452;-67
2023/01/08 03:32:05;;;;;;;3.90;3.57;;;11.90;99.90;;;;;;5053114;28;20441;-66
2023/01/08 03:34:32;;;;;;;4.20;3.90;;;12.00;99.90;;;;;;5049219;28;20471;-67
2023/01/08 03:37:01;;;;;;;3.90;3.67;;;11.90;99.90;;;;;;5053066;28;20411;-66
2023/01/08 03:39:36;;;;;;;4.20;3.90;;;12.00;99.90;;;;;;4997126;28;1081539;-66
2023/01/08 03:42:06;;;;;;;4.33;4.03;;;12.00;99.90;;;;;;5054028;28;20415;-66
2023/01/08 03:44:32;;;;;;;4.50;4.30;;;12.00;99.90;;;;;;5053439;28;20397;-67
2023/01/08 03:46:58;;;;;;;4.33;4.03;;;11.90;99.90;;;;;;5053714;28;20736;-66
2023/01/08 03:49:26;;;;;;;4.20;4.00;;;11.90;99.90;;;;;;5049428;28;20263;-66
2023/01/08 03:51:51;;;;;;;5.07;4.67;;;11.70;99.90;;;;;;5052061;28;20752;-66
2023/01/08 03:54:20;;;;;;;4.13;3.93;;;11.70;99.90;;;;;;5051620;28;20419;-66
2023/01/08 03:56:46;;;;;;;4.33;3.83;;;11.80;99.90;;;;;;5051699;28;20559;-66
2023/01/08 03:59:12;;;;;;;4.00;3.80;;;11.80;99.90;;;;;;5053653;28;20420;-66
2023/01/08 04:01:38;;;;;;;3.90;3.70;;;11.80;99.90;;;;;;5052479;28;20179;-67
2023/01/08 04:04:05;;;;;;;3.90;3.70;;;11.80;99.90;;;;;;5053917;28;20749;-66
2023/01/08 04:06:31;;;;;;;4.33;4.10;;;11.80;99.90;;;;;;5051258;28;20435;-66
2023/01/08 04:08:56;;;;;;;4.60;4.20;;;11.70;99.90;;;;;;5050359;28;20487;-66
2023/01/08 04:11:22;;;;;;;4.30;4.10;;;11.70;99.90;;;;;;5052869;28;20522;-66
2023/01/08 04:13:48;;;;;;;4.90;4.60;;;11.70;99.90;;;;;;5052538;28;20192;-66
2023/01/08 04:16:13;;;;;;;4.17;3.70;;;11.60;99.90;;;;;;5053298;28;20175;-66
2023/01/08 04:18:39;;;;;;;4.03;3.83;;;11.70;99.90;;;;;;5051508;28;20206;-66
2023/01/08 04:21:05;;;;;;;4.50;4.10;;;11.80;99.90;;;;;;5052359;28;20181;-66
2023/01/08 04:23:31;;;;;;;4.43;4.23;;;11.80;99.90;;;;;;5051752;28;20685;-66
2023/01/08 04:25:56;;;;;;;4.47;4.17;;;11.80;99.90;;;;;;5052463;28;20559;-66
2023/01/08 04:28:23;;;;;;;4.20;3.90;;;11.80;99.90;;;;;;5053016;28;20181;-66
2023/01/08 04:30:49;;;;;;;4.10;3.80;;;11.80;99.90;;;;;;5051921;28;20671;-66
2023/01/08 04:33:15;;;;;;;4.50;4.30;;;11.80;99.90;;;;;;5052952;28;20764;-66
2023/01/08 04:35:41;;;;;;;3.90;3.70;;;11.70;99.90;;;;;;5051015;28;20415;-66
2023/01/08 04:38:07;;;;;;;3.97;3.77;;;11.70;99.90;;;;;;5052882;28;20415;-66
2023/01/08 04:40:33;;;;;;;3.83;3.63;;;11.70;99.90;;;;;;5052404;28;20269;-66
2023/01/08 04:42:59;;;;;;;3.80;3.60;;;11.70;99.90;;;;;;5052287;28;20184;-66
2023/01/08 04:45:24;;;;;;;4.20;4.00;;;11.70;99.90;;;;;;5052649;28;20423;-66
2023/01/08 04:47:57;;;;;;;4.00;3.80;;;11.70;99.90;;;;;;5052204;28;20512;-66
2023/01/08 04:50:24;;;;;;;4.20;3.90;;;11.60;99.90;;;;;;5049350;28;20216;-66
2023/01/08 04:52:49;;;;;;;3.53;3.33;;;11.70;99.90;;;;;;5048622;28;20451;-66
2023/01/08 04:55:15;;;;;;;3.70;3.50;;;11.80;99.90;;;;;;5051067;28;20400;-67
2023/01/08 04:57:41;;;;;;;3.70;3.50;;;11.80;99.90;;;;;;5050153;28;20230;-67
2023/01/08 05:00:07;;;;;;;3.13;3.03;;;11.60;99.90;;;;;;5052754;28;20201;-66
2023/01/08 05:02:33;;;;;;;3.20;3.00;;;11.70;99.90;;;;;;5052419;28;20629;-66
2023/01/08 05:04:59;;;;;;;3.60;3.40;;;11.80;99.90;;;;;;5051878;28;20473;-66
2023/01/08 05:07:25;;;;;;;3.33;3.20;;;11.60;99.90;;;;;;5052452;28;20213;-66
2023/01/08 05:09:51;;;;;;;3.53;3.30;;;11.70;99.90;;;;;;5050159;28;20209;-66
2023/01/08 05:12:17;;;;;;;3.53;3.27;;;11.80;99.90;;;;;;5050891;28;20701;-66
2023/01/08 05:14:43;;;;;;;3.20;3.10;;;11.80;99.90;;;;;;5050377;28;20510;-66
2023/01/08 05:17:08;;;;;;;3.60;3.40;;;11.80;99.90;;;;;;5052227;28;20359;-66
2023/01/08 05:19:34;;;;;;;3.57;3.27;;;11.90;99.90;;;;;;5050059;28;20267;-66
2023/01/08 05:22:02;;;;;;;3.47;3.27;;;11.80;99.90;;;;;;5051148;28;20408;-66
2023/01/08 05:24:28;;;;;;;3.13;3.00;;;11.90;99.90;;;;;;5052073;28;20253;-66
2023/01/08 05:26:53;;;;;;;3.50;3.33;;;11.70;99.90;;;;;;5050362;28;20993;-66
2023/01/08 05:29:19;;;;;;;2.93;2.83;;;11.70;99.90;;;;;;5052136;28;20236;-66
2023/01/08 05:31:45;;;;;;;3.10;2.90;;;11.80;99.90;;;;;;5050253;28;20201;-66
2023/01/08 05:34:10;;;;;;;3.20;3.00;;;11.80;99.90;;;;;;5052107;28;20264;-66
2023/01/08 05:36:36;;;;;;;2.93;2.83;;;11.90;99.90;;;;;;5051943;28;20192;-67
2023/01/08 05:39:02;;;;;;;2.70;2.60;;;11.90;99.90;;;;;;5050850;28;20201;-66
2023/01/08 05:41:28;;;;;;;2.80;2.70;;;12.00;99.90;;;;;;5052240;28;20310;-66
2023/01/08 05:43:54;;;;;;;3.20;3.10;;;11.90;99.90;;;;;;5033363;28;20451;-66
2023/01/08 05:46:19;;;;;;;2.90;2.80;;;11.90;99.90;;;;;;5050850;28;20866;-66
2023/01/08 05:48:45;;;;;;;3.13;3.00;;;11.90;99.90;;;;;;5051060;28;20279;-66
2023/01/08 05:51:11;;;;;;;3.00;2.90;;;11.90;99.90;;;;;;5050417;28;20184;-66
2023/01/08 05:53:37;;;;;;;2.80;2.70;;;11.90;99.90;;;;;;5049034;28;20198;-66
2023/01/08 05:56:09;;;;;;;2.70;2.60;;;12.00;99.90;;;;;;5050959;28;20183;-66
2023/01/08 05:58:35;;;;;;;2.90;2.80;;;12.00;99.90;;;;;;5051776;28;20397;-66
2023/01/08 06:01:06;;;;;;;3.20;2.90;;;12.00;99.90;;;;;;5051128;28;21041;-66
2023/01/08 06:03:32;;;;;;;3.30;3.10;;;12.10;99.90;;;;;;5050919;28;20423;-66
2023/01/08 06:06:00;;;;;;;3.13;3.03;;;12.00;99.90;;;;;;5051028;28;20404;-66
2023/01/08 06:08:26;;;;;;;3.07;2.97;;;11.90;99.90;;;;;;5051636;28;20178;-66
2023/01/08 06:10:52;;;;;;;4.13;3.93;;;11.80;99.90;;;;;;5050871;28;20463;-66
2023/01/08 06:13:18;;;;;;;3.10;3.00;;;11.80;99.90;;;;;;5051959;28;20476;-66
2023/01/08 06:15:43;;;;;;;3.03;2.93;;;12.00;99.90;;;;;;5050953;28;20170;-67
2023/01/08 06:18:09;;;;;;;2.93;2.77;;;11.90;99.90;;;;;;5049967;28;20188;-66
2023/01/08 06:20:35;;;;;;;3.07;2.93;;;12.00;99.90;;;;;;5050462;28;20221;-66
2023/01/08 06:23:00;;;;;;;3.10;3.00;;;12.00;99.90;;;;;;5048980;28;20767;-66
2023/01/08 06:25:27;;;;;;;3.40;3.30;;;11.90;99.90;;;;;;5051867;28;20180;-66
2023/01/08 06:27:53;;;;;;;3.43;3.33;;;11.90;99.90;;;;;;5050762;28;20238;-66
2023/01/08 06:30:19;;;;;;;4.70;4.30;;;11.90;99.90;;;;;;5049648;28;20563;-66
2023/01/08 06:32:44;;;;;;;3.10;3.00;;;12.00;99.90;;;;;;5049149;28;20207;-67
2023/01/08 06:35:10;;;;;;;3.87;3.67;;;12.10;99.90;;;;;;5052004;28;20185;-66
2023/01/08 06:37:36;;;;;;;3.60;3.40;;;12.10;99.90;;;;;;5054226;28;20209;-66
2023/01/08 06:40:01;;;;;;;3.57;3.37;;;12.10;99.90;;;;;;5047709;28;20297;-66
2023/01/08 06:42:27;;;;;;;3.07;2.97;;;12.00;99.90;;;;;;5054880;28;20189;-66
2023/01/08 06:44:53;;;;;;;4.17;3.40;;;12.00;99.90;;;;;;5054243;28;20177;-66
2023/01/08 06:47:18;;;;;;;3.83;3.50;;;12.00;99.90;;;;;;5054727;28;20257;-66
2023/01/08 06:49:45;;;;;;;3.10;3.00;;;11.90;99.90;;;;;;5052045;28;20258;-67
2023/01/08 06:52:11;;;;;;;2.93;2.80;;;11.90;99.90;;;;;;5054007;28;20216;-66
2023/01/08 06:54:37;;;;;;;2.90;2.80;;;11.90;99.90;;;;;;5052916;28;20835;-66
2023/01/08 06:57:02;;;;;;;3.27;3.07;;;11.80;99.90;;;;;;5053082;28;20516;-66
2023/01/08 06:59:28;;;;;;;2.90;2.70;;;11.50;99.90;;;;;;5054746;28;20193;-66
2023/01/08 07:01:54;;;;;;;3.40;3.20;;;11.50;99.90;;;;;;5051247;28;20667;-66
2023/01/08 07:04:20;;;;;;;3.30;3.10;;;11.50;99.90;;;;;;5053632;28;20436;-66
2023/01/08 07:06:46;;;;;;;2.77;2.67;;;11.50;99.90;;;;;;5052674;28;21007;-67
2023/01/08 07:09:13;;;;;;;2.90;2.80;;;11.50;99.90;;;;;;5054697;28;20220;-66
2023/01/08 07:11:40;;;;;;;2.87;2.77;;;11.50;99.90;;;;;;5053837;28;20444;-66
2023/01/08 07:14:06;;;;;;;2.83;2.73;;;11.70;99.90;;;;;;5053497;28;20472;-66
2023/01/08 07:16:32;;;;;;;2.40;2.40;;;11.70;99.90;;;;;;5054427;28;20502;-66
2023/01/08 07:18:58;;;;;;;2.80;2.60;;;11.70;99.90;;;;;;5052610;28;20420;-66
2023/01/08 07:21:24;;;;;;;3.57;3.30;;;11.80;99.90;;;;;;5054640;28;20439;-66
2023/01/08 07:23:49;;;;;;;3.50;3.27;;;11.70;99.90;;;;;;5053516;28;20256;-67
2023/01/08 07:26:16;;;;;;;3.80;3.60;;;11.60;99.90;;;;;;5054755;28;20515;-66
2023/01/08 07:28:42;;;;;;;3.10;3.00;;;11.70;99.90;;;;;;5054198;28;20188;-66
2023/01/08 07:31:08;;;;;;;3.60;3.40;;;11.80;99.90;;;;;;5049279;28;20428;-66
2023/01/08 07:33:34;;;;;;;6.83;6.10;;;11.70;99.90;;;;;;5048548;28;20787;-65
2023/01/08 07:36:01;;;;;;;3.07;2.90;;;11.90;99.90;;;;;;5052231;28;20470;-65
2023/01/08 07:38:27;;;;;;;2.70;2.60;;;11.90;99.90;;;;;;5041663;28;20437;-65
2023/01/08 07:40:53;;;;;;;2.57;2.47;;;11.80;99.90;;;;;;5051511;28;20465;-66
2023/01/08 07:43:19;;;;;;;2.80;2.70;;;11.90;99.90;;;;;;5053693;28;20188;-65
2023/01/08 07:45:44;;;;;;;3.33;2.67;;;11.90;99.90;;;;;;5051860;28;20416;-66
2023/01/08 07:48:14;;;;;;;2.90;2.80;;;12.00;99.90;;;;;;5053901;28;20414;-65
2023/01/08 07:50:41;;;;;;;2.40;2.30;;;12.00;99.90;;;;;;5050322;28;20217;-65
2023/01/08 07:53:07;;;;;;;2.40;2.40;;;11.90;99.90;;;;;;5051226;28;20917;-65
2023/01/08 07:55:33;;;;;;;2.23;2.23;;;11.90;99.90;;;;;;5053505;28;20465;-65
2023/01/08 07:57:58;;;;;;;2.83;2.63;;;11.80;99.90;;;;;;5050734;28;20424;-65
2023/01/08 08:00:24;;;;;;;2.50;2.50;;;11.70;99.90;;;;;;5053474;28;20181;-65
2023/01/08 08:02:50;;;;;;;2.80;2.70;;;11.80;99.90;;;;;;5052844;28;20180;-65
2023/01/08 08:05:17;;;;;;;3.00;2.90;;;11.80;99.90;;;;;;5053837;28;20506;-65
2023/01/08 08:07:43;;;;;;;2.60;2.60;;;11.80;99.90;;;;;;5053479;28;20557;-65
2023/01/08 08:10:10;;;;;;;2.60;2.50;;;11.80;99.90;;;;;;5052691;28;20571;-65
2023/01/08 08:12:36;;;;;;;2.50;2.40;;;11.80;99.90;;;;;;5052285;28;20514;-65
2023/01/08 08:15:02;;;;;;;2.60;2.50;;;11.80;99.90;;;;;;5052830;28;20502;-66
2023/01/08 08:17:28;;;;;;;2.60;2.50;;;11.80;99.90;;;;;;5053322;28;20430;-65
2023/01/08 08:19:54;;;;;;;2.40;2.30;;;11.80;99.90;;;;;;5050912;28;20924;-65
2023/01/08 08:22:19;;;;;;;2.60;2.50;;;11.90;99.90;;;;;;5052461;28;20516;-66
2023/01/08 08:24:45;;;;;;;2.53;2.43;;;11.90;99.90;;;;;;5053141;28;20175;-66
2023/01/08 08:27:11;;;;;;;2.80;2.70;;;11.80;99.90;;;;;;5038006;28;20183;-66
2023/01/08 08:29:36;;;;;;;2.70;2.50;;;11.90;99.90;;;;;;5033482;28;20963;-65
2023/01/08 08:32:02;;;;;;;3.53;2.50;;;11.80;99.90;;;;;;5031725;28;20182;-65
2023/01/08 08:34:28;;;;;;;2.60;2.40;;;11.80;99.90;;;;;;5045967;28;20181;-66
2023/01/08 08:36:54;;;;;;;2.50;2.40;;;11.80;99.90;;;;;;5052996;28;20408;-66
2023/01/08 08:39:21;;;;;;;2.40;2.30;;;11.80;99.90;;;;;;5053124;28;20252;-65
2023/01/08 08:41:47;;;;;;;2.63;2.53;;;11.90;99.90;;;;;;5049026;28;20927;-67
2023/01/08 08:44:13;;;;;;;3.33;2.90;;;11.90;99.90;;;;;;5042101;28;20177;-66
2023/01/08 08:46:38;;;;;;;3.47;3.37;;;12.00;99.90;;;;;;5061605;28;20249;-65
2023/01/08 08:49:04;;;;;;;3.63;3.37;;;11.90;99.90;;;;;;5060397;28;20213;-66
2023/01/08 08:51:30;;;;;;;2.90;2.80;;;12.00;99.90;;;;;;5048537;28;20183;-65
2023/01/08 08:53:55;;;;;;;3.50;3.30;;;12.00;99.90;;;;;;5054065;28;20188;-65
2023/01/08 08:56:21;;;;;;;4.00;2.60;;;12.00;99.90;;;;;;5051398;28;20196;-65
2023/01/08 08:58:47;;;;;;;2.03;1.93;;;12.00;99.90;;;;;;5052600;28;20626;-65
2023/01/08 09:01:12;;;;;;;2.30;2.10;;;12.00;99.90;;;;;;5049403;28;20239;-66
2023/01/08 09:03:38;;;;;;;3.13;2.10;;;12.10;99.90;;;;;;5047869;28;20536;-65
2023/01/08 09:06:04;;;;;;;2.03;1.90;;;12.10;99.90;;;;;;5049846;28;20186;-65
2023/01/08 09:08:30;;;;;;;3.80;2.30;;;12.10;99.90;;;;;;5048608;28;20185;-65
2023/01/08 09:10:55;;;;;;;4.00;2.33;;;12.20;99.90;;;;;;5043901;28;20481;-66
2023/01/08 09:13:21;;;;;;;5.13;2.10;;;12.10;99.90;;;;;;5049945;28;20657;-65
2023/01/08 09:15:47;;;;;;;2.47;1.87;;;12.20;99.90;;;;;;5050544;28;20254;-67
2023/01/08 09:18:13;;;;;;;2.97;1.80;;;12.00;99.90;;;;;;5039762;28;20181;-66
2023/01/08 09:20:38;;;;;;;1.90;1.80;;;12.10;99.90;;;;;;5052508;28;20271;-66
2023/01/08 09:23:05;;;;;;;3.67;2.47;;;12.20;99.90;;;;;;5051184;28;20216;-66
2023/01/08 09:25:31;;;;;;;3.40;2.13;;;12.20;99.90;;;;;;5050998;28;20177;-66
2023/01/08 09:28:02;;;;;;;5.33;2.40;;;12.20;99.90;;;;;;5051497;28;20407;-66
2023/01/08 09:30:28;;;;;;;4.10;2.27;;;12.20;99.90;;;;;;5052251;28;20451;-66
2023/01/08 09:32:58;;;;;;;2.00;1.90;;;12.20;99.90;;;;;;5050509;28;20428;-66
2023/01/08 09:35:24;;;;;;;2.50;1.97;;;12.20;99.90;;;;;;5051904;28;20980;-66
2023/01/08 09:37:51;;;;;;;6.93;2.30;;;12.20;99.90;;;;;;5052113;28;20523;-66
2023/01/08 09:40:20;;;;;;;2.60;2.40;;;12.20;99.90;;;;;;5033982;28;20228;-67
2023/01/08 09:42:58;;;;;;;8.60;2.70;;;12.40;99.90;;;;;;5051870;28;20917;-67
2023/01/08 09:45:27;;;;;;;3.80;2.57;;;12.40;99.90;;;;;;5051649;28;20400;-67
2023/01/08 09:47:54;;;;;;;3.77;2.77;;;12.60;99.90;;;;;;5049519;28;20437;-67
2023/01/08 09:50:22;;;;;;;2.70;2.50;;;12.90;99.90;;;;;;5052370;28;20588;-67
2023/01/08 09:52:48;;;;;;;3.20;2.90;;;13.70;99.90;;;;;;5052381;28;20488;-67
2023/01/08 09:55:15;;;;;;;3.27;2.87;;;14.70;99.50;;;;;;5051775;28;20506;-67
2023/01/08 09:57:42;;;;;;;3.40;3.00;;;15.80;95.90;;;;;;5052255;28;20189;-68
2023/01/08 10:00:24;;;;;;;3.50;3.20;;;16.80;96.20;;;;;;5051733;28;20415;-68
2023/01/08 10:02:52;;;;;;;3.80;3.37;;;17.70;93.80;;;;;;5051181;28;20427;-68
2023/01/08 10:05:18;;;;;;;3.53;2.80;;;18.50;94.90;;;;;;5051933;28;20444;-69
2023/01/08 10:07:45;;;;;;;2.77;2.57;;;19.10;88.20;;;;;;5053029;28;20424;-66
2023/01/08 10:10:30;;;;;;;3.27;3.00;;;20.10;85.60;;;;;;5054124;28;20460;-67
2023/01/08 10:12:55;;;;;;;3.57;3.23;;;21.40;77.30;;;;;;5057268;28;20419;-67
2023/01/08 10:15:22;;;;;;;3.70;3.50;;;22.30;74.60;;;;;;5055801;28;20418;-67
2023/01/08 10:17:51;;;;;;;3.83;3.33;;;22.20;75.00;;;;;;5053414;28;20504;-67
2023/01/08 10:20:20;;;;;;;3.60;3.20;;;21.70;72.80;;;;;;5053252;28;20892;-67
2023/01/08 10:22:47;;;;;;;4.33;3.43;;;21.20;73.80;;;;;;5053324;28;20926;-67
2023/01/08 10:25:23;;;;;;;3.30;3.00;;;20.20;74.30;;;;;;5054072;28;20419;-68
2023/01/08 10:28:02;;;;;;;3.43;3.10;;;19.30;83.00;;;;;;5052993;28;20462;-68
2023/01/08 10:30:35;;;;;;;4.53;2.90;;;18.70;82.60;;;;;;5052446;28;20483;-68
2023/01/08 10:33:05;;;;;;;3.50;3.30;;;18.40;88.00;;;;;;5051615;28;20407;-68
2023/01/08 10:35:36;;;;;;;4.67;3.17;;;18.20;85.80;;;;;;5054166;28;20412;-68
2023/01/08 10:38:01;;;;;;;3.47;3.20;;;17.10;90.50;;;;;;5051093;28;20875;-68
2023/01/08 10:40:32;;;;;;;3.27;2.97;;;17.50;90.80;;;;;;5054367;28;20460;-68
2023/01/08 10:43:06;;;;;;;4.00;3.30;;;18.10;89.70;;;;;;5056432;28;20169;-67
2023/01/08 10:45:32;;;;;;;2.80;2.60;;;18.70;83.90;;;;;;5051252;28;20430;-66
2023/01/08 10:48:02;;;;;;;3.13;2.87;;;18.40;82.20;;;;;;5052426;28;20416;-67
2023/01/08 10:50:30;;;;;;;2.70;2.60;;;18.30;83.40;;;;;;5050914;28;20444;-66
2023/01/08 10:53:01;;;;;;;2.73;2.63;;;18.30;83.40;;;;;;5053373;28;20495;-67
2023/01/08 10:55:34;;;;;;;2.57;2.47;;;18.50;84.50;;;;;;5053609;28;20404;-66
2023/01/08 10:58:02;;;;;;;3.23;3.03;;;18.70;82.80;;;;;;5053401;28;20395;-67
2023/01/08 11:00:30;;;;;;;2.23;2.13;;;18.60;84.20;;;;;;5052309;28;20780;-66
2023/01/08 11:03:01;;;;;;;2.27;2.23;;;18.50;84.40;;;;;;5053278;28;20941;-67
2023/01/08 11:05:33;;;;;;;3.00;2.80;;;18.40;85.80;;;;;;5051740;28;20503;-68
2023/01/08 11:08:01;;;;;;;3.90;3.70;;;18.20;85.30;;;;;;5045281;28;20443;-67
2023/01/08 11:10:29;;;;;;;3.30;3.20;;;18.20;88.20;;;;;;5049378;28;20477;-66
2023/01/08 11:13:03;;;;;;;3.10;2.90;;;18.40;86.90;;;;;;5048569;28;20428;-66
2023/01/08 11:15:32;;;;;;;3.27;3.07;;;18.40;86.20;;;;;;5049388;28;20498;-66
2023/01/08 11:18:21;;;;;;;3.30;3.03;;;18.20;85.90;;;;;;5036040;28;20891;-66
2023/01/08 11:20:49;;;;;;;3.00;2.90;;;18.10;86.70;;;;;;5034395;28;20413;-66
2023/01/08 11:23:20;;;;;;;3.27;2.97;;;18.20;87.50;;;;;;5033693;28;20592;-67
2023/01/08 11:25:51;;;;;;;4.00;3.37;;;18.00;86.30;;;;;;5034175;28;20421;-67
2023/01/08 11:28:26;;;;;;;2.80;2.70;;;17.90;85.40;;;;;;5033775;28;20401;-67
2023/01/08 11:31:32;;;;;;;2.60;2.50;;;17.90;86.50;;;;;;5033527;28;20852;-67
2023/01/08 11:34:06;;;;;;;3.13;2.40;;;17.90;87.10;;;;;;5033501;28;20791;-67
2023/01/08 11:36:39;;;;;;;2.80;2.60;;;17.60;86.50;;;;;;5034698;28;20401;-66
2023/01/08 11:39:08;;;;;;;2.70;2.50;;;17.90;87.40;;;;;;5033796;28;20417;-67
2023/01/08 11:42:02;;;;;;;2.70;2.60;;;18.10;86.20;;;;;;5034216;28;20445;-67
2023/01/08 11:44:36;;;;;;;2.90;2.57;;;18.30;85.60;;;;;;5049204;28;20503;-68
2023/01/08 11:47:08;;;;;;;3.03;2.80;;;18.20;83.60;;;;;;5053855;28;20447;-67
2023/01/08 11:49:43;;;;;;;3.40;3.10;;;17.80;85.10;;;;;;5054283;28;20456;-66
2023/01/08 11:52:24;;;;;;;3.60;3.40;;;17.70;85.80;;;;;;5053332;28;20411;-67
2023/01/08 11:54:59;;;;;;;2.97;2.77;;;17.00;86.40;;;;;;5053847;28;20437;-67
2023/01/08 11:57:43;;;;;;;2.60;2.50;;;16.60;90.40;;;;;;5054206;28;20461;-67
2023/01/08 12:00:44;;;;;;;2.60;2.50;;;16.50;91.00;;;;;;5052319;28;20502;-66
2023/01/08 12:03:35;;;;;;;3.00;2.90;;;15.80;92.20;;;;;;5053459;28;20458;-66
2023/01/08 12:06:10;;;;;;;3.00;2.90;;;15.60;93.90;;;;;;5053384;28;20406;-67
2023/01/08 12:09:14;;;;;;;3.17;2.90;;;15.40;94.70;;;;;;5054030;28;20837;-67
2023/01/08 12:12:05;;;;;;;2.83;2.73;;;15.50;95.40;;;;;;5052750;28;20468;-65
2023/01/08 12:14:59;;;;;;;2.40;2.30;;;15.40;94.70;;;;;;5052830;28;20434;-67
2023/01/08 12:17:25;;;;;;;2.10;2.00;;;15.30;95.00;;;;;;5052638;28;20781;-66
2023/01/08 12:20:31;;;;;;;3.10;2.90;;;15.00;95.80;;;;;;5053484;28;20517;-66
2023/01/08 12:23:44;;;;;;;2.77;2.60;;;15.00;96.60;;;;;;5014211;28;20183;-68
2023/01/08 12:26:27;;;;;;;3.00;2.80;;;14.70;97.50;;;;;;5050639;28;20492;-66
2023/01/08 12:29:17;;;;;;;2.60;2.50;;;14.50;98.20;;;;;;5053538;28;20409;-66
2023/01/08 12:31:58;;;;;;;3.23;3.03;;;14.50;99.00;;;;;;5053010;28;20416;-66
2023/01/08 12:34:48;;;;;;;3.03;2.93;;;14.30;99.60;;;;;;5053552;28;20899;-67
2023/01/08 12:37:24;;;;;;;2.70;2.50;;;14.20;99.90;;;;;;5052567;28;20889;-67
2023/01/08 12:40:11;;;;;;;2.83;2.60;;;14.20;99.90;;;;;;5053237;28;20473;-66
2023/01/08 12:42:41;;;;;;;2.73;2.63;;;14.00;99.90;;;;;;5051719;28;20444;-67
2023/01/08 12:45:16;;;;;;;2.80;2.70;;;14.20;99.90;;;;;;5052400;28;20934;-67
2023/01/08 12:47:46;;;;;;;2.80;2.70;;;14.20;99.90;;;;;;5053284;28;20403;-66
2023/01/08 12:50:38;;;;;;;2.40;2.30;;;13.90;99.90;;;;;;5052435;28;20439;-67
2023/01/08 12:53:26;;;;;;;2.87;2.77;;;13.70;99.90;;;;;;5051294;28;20473;-67
2023/01/08 12:55:59;;;;;;;2.33;2.23;;;13.70;99.90;;;;;;5052789;28;20871;-66
2023/01/08 12:58:47;;;;;;;2.70;2.60;;;13.70;99.90;;;;;;5053008;28;20405;-66
2023/01/08 13:01:43;;;;;;;3.00;2.80;;;13.60;99.90;;;;;;5052347;28;20452;-66